Weather at City of Colorado Springs Municipal Airport

Public forecast

Using degrees Fahrenheit for public forecast. Weather courtesy of forecast.io.

Current aviation weather report (METAR) for City of Colorado Springs Municipal Airport

Retrieved 2020/10/01 10:54 UTC (59 minutes ago):

KCOS 011054Z 34006KT 10SM FEW150 07/M02 A3050 RMK AO2 SLP269 FU FEW150 T00721017

Aviation forecast (TAF) for City of Colorado Springs Municipal Airport

Retrieved 2020/10/01 06:24 UTC (5 hours ago):

TAF KCOS 010522Z 0106/0206 02007KT P6SM SCT200 FM011600 16008KT P6SM SKC FM020300 02006KT P6SM SKC